Pagrindinis puslapis
METAR-TAF:

METAR-TAF

Oro uostai :

Oro uostas

Kachramanmarašas, Turkija

platuma: 37-32-20N, ilguma: 036-57-12E, Aukštis: 525 m

Dabartinis oras

Ataskaita buvo paskelbta 40 minutes, ne 06:50 UTC
Vėjas 3 kt nuo kintamojo kryptimis
Temperatūra 23°C
Drėgmė 47%
Slėgis 1015 hPa
Matomumas 10 km arba daugiau
nėra debesų žemiau 1500 m ir nėra kamuolinių lietaus debesų

METAR: LTCN 140650Z VRB03KT CAVOK 23/11 Q1015 NOSIG

Laikas: 10:30 (07:30 UTC)

Prognozė

Ataskaita buvo paskelbta 2 valandos ir 50 minutes, ne 04:40 UTC
Prognozė galioja nuo 14 metu 06 UTC su 14 metu 15 UTC
Vėjas 2 kt nuo kintamojo kryptimis
Matomumas 10 km arba daugiau
nėra debesų žemiau 1500 m ir nėra kamuolinių lietaus debesų
Tapsmas
nuo 14 metu 12 UTC su 14 metu 15 UTC
Vėjas 17 kt iš Vakarų/Šiaurės Vakarų

TAF: LTCN 140440Z 1406/1415 VRB02KT CAVOK BECMG 1412/1415 30017KT

Orai ataskaitas ir orų prognozės (METAR, TAF).

turimą stotys yra geltonos ir raudonos taškus žemėlapyje.

Perkelti pele per norėdami pamatyti stoties vardą.

Tada spustelėkite, norėdami matyti oro stebėjimo ir prognozės.

Norėdami pakeisti žemėlapį: spustelėkite ant žalios mygtukų su juodo kryžiaus žemyn,; žalią mygtuką su brūkšneliu, jei norite nutolinti; arba žalių rodyklių gretimoms žemėlapius.


METAR-TAF: